Time;durP1;ratioP1;P1;durP2;ratioP2;P2;SDS_P1;SDS_P2;PMS_P1;PMS_P2;Temp;Humidity;BMP_temperature;BMP_pressure;BME280_temperature;BME280_humidity;BME280_pressure;Samples;Min_cycle;Max_cycle;Signal;HPM_P1;HPM_P2
2022/11/01 00:02:41;;;;;;;20.73;15.47;;;8.60;99.90;;;;;;8396800;28;20196;-70
2022/11/01 00:06:42;;;;;;;18.07;14.27;;;8.60;99.90;;;;;;8412844;28;20214;-70
2022/11/01 00:10:43;;;;;;;19.00;14.20;;;8.50;99.90;;;;;;8413681;28;20263;-70
2022/11/01 00:14:44;;;;;;;18.70;15.20;;;8.50;99.90;;;;;;8394962;28;20228;-70
2022/11/01 00:18:46;;;;;;;20.63;17.47;;;8.50;99.90;;;;;;8393560;28;20183;-71
2022/11/01 00:22:50;;;;;;;32.57;21.10;;;8.50;99.90;;;;;;8410944;28;20245;-70
2022/11/01 00:26:50;;;;;;;27.27;18.77;;;8.60;99.90;;;;;;8394630;28;20218;-71
2022/11/01 00:30:53;;;;;;;25.43;17.43;;;8.60;99.90;;;;;;8419056;28;20191;-70
2022/11/01 00:34:53;;;;;;;22.27;15.90;;;8.60;99.90;;;;;;8415559;28;20731;-70
2022/11/01 00:38:54;;;;;;;20.73;16.20;;;8.60;99.90;;;;;;8419010;28;20196;-70
2022/11/01 00:42:55;;;;;;;25.13;17.27;;;8.50;99.90;;;;;;8420996;28;20180;-70
2022/11/01 00:46:56;;;;;;;24.77;17.20;;;8.50;99.90;;;;;;8402923;28;20271;-70
2022/11/01 00:50:57;;;;;;;20.90;16.63;;;8.60;99.90;;;;;;8401043;28;20251;-69
2022/11/01 00:54:58;;;;;;;23.40;18.27;;;8.70;99.90;;;;;;8398380;28;20261;-70
2022/11/01 00:58:58;;;;;;;24.23;18.13;;;8.80;99.90;;;;;;8402262;28;20278;-69
2022/11/01 01:02:59;;;;;;;24.57;18.53;;;8.80;99.90;;;;;;8421429;28;20235;-69
2022/11/01 01:07:00;;;;;;;26.50;20.17;;;8.90;99.90;;;;;;8393229;28;20322;-69
2022/11/01 01:11:01;;;;;;;24.97;18.57;;;8.90;99.90;;;;;;8402039;28;20280;-69
2022/11/01 01:15:02;;;;;;;26.53;19.20;;;8.90;99.90;;;;;;8420001;28;20245;-69
2022/11/01 01:19:03;;;;;;;27.77;19.87;;;8.90;99.90;;;;;;8404035;28;20493;-69
2022/11/01 01:23:04;;;;;;;32.60;21.87;;;8.90;99.90;;;;;;8420585;28;20252;-69
2022/11/01 01:27:05;;;;;;;29.83;21.33;;;9.00;99.90;;;;;;8401998;28;20193;-69
2022/11/01 01:31:07;;;;;;;37.43;26.80;;;9.10;99.90;;;;;;8401723;28;20214;-69
2022/11/01 01:35:08;;;;;;;30.73;21.57;;;9.20;99.90;;;;;;8418910;28;20229;-70
2022/11/01 01:39:09;;;;;;;26.43;19.23;;;9.00;99.90;;;;;;8416874;28;20243;-70
2022/11/01 01:43:13;;;;;;;37.97;24.63;;;9.00;99.90;;;;;;8400528;28;20503;-66
2022/11/01 01:47:20;;;;;;;46.77;29.70;;;8.90;99.90;;;;;;8397899;28;20195;-68
2022/11/01 01:51:24;;;;;;;38.93;27.73;;;9.00;99.90;;;;;;8417565;28;20189;-69
2022/11/01 01:55:54;;;;;;;31.00;23.13;;;9.20;99.90;;;;;;8420990;28;20213;-67
2022/11/01 01:59:55;;;;;;;30.90;22.63;;;9.20;99.90;;;;;;8388941;28;20220;-67
2022/11/01 02:03:56;;;;;;;35.13;24.80;;;9.20;99.90;;;;;;8398654;28;20210;-68
2022/11/01 02:07:58;;;;;;;49.83;33.90;;;9.20;99.90;;;;;;8394067;28;20220;-71
2022/11/01 02:11:58;;;;;;;47.77;32.33;;;9.40;99.90;;;;;;8399646;28;20208;-69
2022/11/01 02:16:21;;;;;;;38.03;28.37;;;9.30;99.90;;;;;;8397752;28;20182;-70
2022/11/01 02:20:56;;;;;;;32.97;23.50;;;8.80;99.90;;;;;;8418567;28;20252;-69
2022/11/01 02:24:59;;;;;;;34.00;25.73;;;8.80;99.90;;;;;;8419269;28;20238;-67
2022/11/01 02:29:19;;;;;;;45.10;30.50;;;8.70;99.90;;;;;;8418882;28;20192;-67
2022/11/01 02:33:52;;;;;;;51.50;35.23;;;8.80;99.90;;;;;;8400066;28;20313;-70
2022/11/01 02:38:06;;;;;;;37.00;26.27;;;8.90;99.90;;;;;;8399098;28;20207;-69
2022/11/01 02:42:30;;;;;;;30.93;22.30;;;8.80;99.90;;;;;;8417880;28;20586;-69
2022/11/01 02:50:58;;;;;;;31.57;23.57;;;8.40;99.90;;;;;;8420394;28;20237;-68
2022/11/01 02:55:02;;;;;;;34.43;24.77;;;8.30;99.90;;;;;;8398329;28;20223;-69
2022/11/01 02:59:04;;;;;;;33.40;23.80;;;8.30;99.90;;;;;;8397649;28;20299;-69
2022/11/01 03:03:12;;;;;;;31.43;22.40;;;8.30;99.90;;;;;;8412118;28;20324;-70
2022/11/01 03:07:14;;;;;;;31.60;23.40;;;8.20;99.90;;;;;;8402451;28;20195;-69
2022/11/01 03:11:17;;;;;;;26.17;19.63;;;8.20;99.90;;;;;;8396491;28;20188;-69
2022/11/01 03:15:38;;;;;;;24.27;19.10;;;8.10;99.90;;;;;;8399066;28;20212;-69
2022/11/01 03:19:58;;;;;;;31.57;20.63;;;8.10;99.90;;;;;;8398539;28;20188;-69
2022/11/01 03:24:12;;;;;;;19.60;17.03;;;8.10;99.90;;;;;;8411923;28;20220;-68
2022/11/01 03:28:19;;;;;;;19.60;16.50;;;7.80;99.90;;;;;;8399905;28;20184;-69
2022/11/01 03:32:21;;;;;;;27.80;21.17;;;7.60;99.90;;;;;;8396107;28;20303;-68
2022/11/01 03:36:25;;;;;;;36.90;24.67;;;7.60;99.90;;;;;;8397938;28;20177;-68
2022/11/01 03:40:28;;;;;;;35.90;24.67;;;7.70;99.90;;;;;;8415930;28;20180;-69
2022/11/01 03:44:37;;;;;;;25.67;18.00;;;7.70;99.90;;;;;;8398172;28;20192;-68
2022/11/01 03:48:39;;;;;;;27.83;20.07;;;7.60;99.90;;;;;;8414747;28;20199;-68
2022/11/01 03:52:40;;;;;;;59.10;32.63;;;7.50;99.90;;;;;;8418050;28;20216;-68
2022/11/01 03:56:40;;;;;;;81.80;24.00;;;7.50;99.90;;;;;;8389704;28;20184;-68
2022/11/01 04:00:44;;;;;;;36.40;28.27;;;7.40;99.90;;;;;;8417848;28;20222;-68
2022/11/01 04:04:44;;;;;;;30.80;22.73;;;7.50;99.90;;;;;;8420594;28;20192;-68
2022/11/01 04:08:45;;;;;;;26.17;21.73;;;7.50;99.90;;;;;;8422470;28;20176;-68
2022/11/01 04:12:48;;;;;;;22.43;18.60;;;7.40;99.90;;;;;;8422300;28;20207;-68
2022/11/01 04:21:14;;;;;;;18.17;15.33;;;7.20;99.90;;;;;;8421562;28;20195;-69
2022/11/01 04:25:15;;;;;;;18.00;14.40;;;7.00;99.90;;;;;;8400905;28;20185;-69
2022/11/01 04:29:16;;;;;;;20.37;16.60;;;6.90;99.90;;;;;;8419894;28;20235;-69
2022/11/01 04:33:17;;;;;;;18.23;15.83;;;6.90;99.90;;;;;;8418858;28;20212;-69
2022/11/01 04:37:18;;;;;;;18.03;15.47;;;6.80;99.90;;;;;;8401715;28;20203;-68
2022/11/01 04:41:18;;;;;;;15.30;13.63;;;6.70;99.90;;;;;;8399148;28;20172;-69
2022/11/01 04:45:19;;;;;;;16.80;14.27;;;6.70;99.90;;;;;;8400398;28;20223;-69
2022/11/01 04:49:20;;;;;;;20.00;16.50;;;6.60;99.90;;;;;;8415517;28;20184;-68
2022/11/01 04:53:21;;;;;;;25.53;19.30;;;6.60;99.90;;;;;;8417994;28;20219;-68
2022/11/01 04:57:22;;;;;;;24.73;17.70;;;6.60;99.90;;;;;;8397730;28;20313;-68
2022/11/01 05:01:22;;;;;;;24.57;16.47;;;6.70;99.90;;;;;;8402101;28;20186;-69
2022/11/01 05:05:23;;;;;;;34.40;19.97;;;6.70;99.90;;;;;;8416868;28;20223;-68
2022/11/01 05:09:24;;;;;;;26.27;19.70;;;6.60;99.90;;;;;;8399323;28;20191;-69
2022/11/01 05:13:25;;;;;;;34.63;22.97;;;6.60;99.90;;;;;;8416672;28;20487;-68
2022/11/01 05:17:25;;;;;;;32.07;21.90;;;6.70;99.90;;;;;;8417681;28;20189;-69
2022/11/01 05:21:26;;;;;;;26.30;18.97;;;6.80;99.90;;;;;;8416436;28;20266;-69
2022/11/01 05:25:28;;;;;;;29.13;22.03;;;6.70;99.90;;;;;;8397065;28;20578;-69
2022/11/01 05:29:29;;;;;;;35.87;26.23;;;6.70;99.90;;;;;;8416837;28;20215;-68
2022/11/01 05:33:30;;;;;;;44.93;28.13;;;6.80;99.90;;;;;;8392599;28;20208;-69
2022/11/01 05:37:31;;;;;;;59.50;31.03;;;7.10;99.90;;;;;;8394206;28;20187;-68
2022/11/01 05:41:31;;;;;;;32.73;24.83;;;7.30;99.90;;;;;;8398912;28;20172;-68
2022/11/01 05:45:32;;;;;;;39.53;26.90;;;7.40;99.90;;;;;;8399060;28;20241;-70
2022/11/01 05:49:33;;;;;;;33.30;24.97;;;7.50;99.90;;;;;;8398329;28;20521;-69
2022/11/01 05:53:34;;;;;;;56.70;31.53;;;7.50;99.90;;;;;;8398038;28;20204;-72
2022/11/01 05:57:35;;;;;;;69.30;30.70;;;7.60;99.90;;;;;;8398397;28;20192;-69
2022/11/01 06:01:36;;;;;;;60.10;29.93;;;7.60;99.90;;;;;;8397954;28;20448;-69
2022/11/01 06:05:37;;;;;;;50.70;29.73;;;7.60;99.90;;;;;;8403520;28;20196;-68
2022/11/01 06:09:38;;;;;;;39.00;25.60;;;7.60;99.90;;;;;;8414698;28;20188;-69
2022/11/01 06:13:39;;;;;;;44.87;27.63;;;7.60;99.90;;;;;;8414479;28;20303;-69
2022/11/01 06:17:39;;;;;;;33.43;23.67;;;7.50;99.90;;;;;;8398194;28;20189;-69
2022/11/01 06:21:40;;;;;;;41.27;25.83;;;7.40;99.90;;;;;;8413248;28;20246;-69
2022/11/01 06:25:41;;;;;;;28.93;21.73;;;7.40;99.90;;;;;;8414202;28;20270;-69
2022/11/01 06:29:42;;;;;;;44.60;28.53;;;7.30;99.90;;;;;;8396942;28;20187;-70
2022/11/01 06:33:43;;;;;;;35.73;24.20;;;7.40;99.90;;;;;;8396401;28;20973;-69
2022/11/01 06:37:44;;;;;;;34.40;22.23;;;7.40;99.90;;;;;;8415575;28;20184;-70
2022/11/01 06:41:45;;;;;;;36.83;25.33;;;7.50;99.90;;;;;;8395935;28;20204;-69
2022/11/01 06:45:45;;;;;;;35.33;24.23;;;7.60;99.90;;;;;;8414693;28;20192;-69
2022/11/01 06:49:46;;;;;;;30.60;21.97;;;7.70;99.90;;;;;;8414870;28;20215;-69
2022/11/01 06:53:47;;;;;;;27.07;20.00;;;7.70;99.90;;;;;;8414333;28;20237;-69
2022/11/01 06:57:58;;;;;;;26.47;19.73;;;7.70;99.90;;;;;;8394691;28;20220;-69
2022/11/01 07:01:59;;;;;;;26.53;19.23;;;7.80;99.90;;;;;;8415402;28;20185;-69
2022/11/01 07:06:00;;;;;;;31.03;21.17;;;7.90;99.90;;;;;;8413437;28;20258;-70
2022/11/01 07:10:01;;;;;;;27.57;20.83;;;7.90;99.90;;;;;;8395144;28;20176;-70
2022/11/01 07:14:03;;;;;;;29.80;21.13;;;8.00;99.90;;;;;;8396061;28;20212;-71
2022/11/01 07:18:07;;;;;;;28.63;21.73;;;8.10;99.90;;;;;;8394692;28;20204;-69
2022/11/01 07:22:08;;;;;;;32.27;23.00;;;8.20;99.90;;;;;;8416805;28;20188;-69
2022/11/01 07:26:09;;;;;;;31.33;23.30;;;8.30;99.90;;;;;;8395083;28;20188;-69
2022/11/01 07:30:10;;;;;;;33.57;25.20;;;8.40;99.90;;;;;;8395638;28;20272;-69
2022/11/01 07:34:11;;;;;;;41.07;30.57;;;8.50;99.90;;;;;;8396045;28;20219;-70
2022/11/01 07:38:13;;;;;;;32.67;24.37;;;8.70;99.90;;;;;;8413815;28;20185;-70
2022/11/01 07:42:14;;;;;;;39.13;28.00;;;8.90;99.90;;;;;;8395301;28;20280;-69
2022/11/01 07:46:15;;;;;;;34.67;25.80;;;9.20;99.90;;;;;;8412449;28;20257;-70
2022/11/01 07:50:16;;;;;;;40.37;25.20;;;9.40;99.90;;;;;;8410760;28;20216;-70
2022/11/01 07:54:17;;;;;;;68.50;30.73;;;9.70;99.90;;;;;;8395766;28;20210;-70
2022/11/01 07:58:18;;;;;;;57.37;28.73;;;10.00;99.90;;;;;;8395075;28;20269;-69
2022/11/01 08:02:19;;;;;;;39.30;23.73;;;10.20;99.90;;;;;;8413590;28;20199;-68
2022/11/01 08:06:20;;;;;;;36.57;23.47;;;10.40;99.90;;;;;;8413853;28;20195;-69
2022/11/01 08:10:21;;;;;;;35.40;22.03;;;10.60;99.90;;;;;;8393676;28;20192;-68
2022/11/01 08:14:22;;;;;;;32.47;22.57;;;10.90;99.90;;;;;;8413488;28;20534;-68
2022/11/01 08:18:23;;;;;;;47.93;30.13;;;11.10;99.90;;;;;;8412748;28;20184;-68
2022/11/01 08:22:24;;;;;;;35.03;23.50;;;11.20;99.90;;;;;;8412844;28;20192;-69
2022/11/01 08:26:25;;;;;;;28.63;21.33;;;11.10;99.90;;;;;;8393402;28;20268;-69
2022/11/01 08:30:26;;;;;;;30.80;20.40;;;11.40;99.90;;;;;;8393809;28;20293;-69
2022/11/01 08:34:29;;;;;;;30.57;22.50;;;11.50;99.90;;;;;;8390565;28;20212;-72
2022/11/01 08:38:30;;;;;;;31.00;21.27;;;11.80;99.90;;;;;;8413638;28;20237;-69
2022/11/01 08:42:31;;;;;;;26.70;21.27;;;11.80;99.90;;;;;;8410110;28;20181;-69
2022/11/01 08:46:32;;;;;;;23.23;16.40;;;12.00;99.90;;;;;;8413883;28;20233;-69
2022/11/01 08:50:33;;;;;;;23.93;17.27;;;12.40;99.90;;;;;;8401731;28;20216;-69
2022/11/01 08:54:34;;;;;;;22.50;15.63;;;12.90;99.90;;;;;;8400346;28;20243;-70
2022/11/01 08:58:35;;;;;;;16.93;13.17;;;13.20;99.90;;;;;;8399374;28;20265;-69
2022/11/01 09:02:36;;;;;;;17.27;11.43;;;13.10;99.90;;;;;;8399171;28;20204;-70
2022/11/01 09:06:37;;;;;;;15.17;10.63;;;13.10;99.90;;;;;;8418100;28;20185;-70
2022/11/01 09:10:38;;;;;;;16.90;10.87;;;13.30;99.90;;;;;;8417635;28;20184;-71
2022/11/01 09:14:39;;;;;;;16.03;9.40;;;13.40;99.90;;;;;;8389977;28;20291;-70
2022/11/01 09:18:40;;;;;;;15.37;8.63;;;13.50;99.90;;;;;;8394166;28;20601;-71
2022/11/01 09:22:40;;;;;;;12.17;8.33;;;13.60;99.90;;;;;;8418180;28;20260;-70
2022/11/01 09:26:41;;;;;;;9.03;6.97;;;13.70;99.90;;;;;;8418081;28;20241;-70
2022/11/01 09:30:42;;;;;;;9.97;7.43;;;13.90;99.90;;;;;;8398592;28;20188;-70
2022/11/01 09:34:45;;;;;;;11.97;7.80;;;14.00;99.90;;;;;;8416379;28;20259;-70
2022/11/01 09:38:46;;;;;;;8.57;7.37;;;14.00;99.90;;;;;;8400319;28;20180;-70
2022/11/01 09:42:47;;;;;;;11.13;7.33;;;14.00;99.90;;;;;;8400158;28;20208;-70
2022/11/01 09:47:21;;;;;;;8.33;6.67;;;14.10;99.90;;;;;;8397478;28;20193;-70
2022/11/01 09:51:24;;;;;;;11.73;7.47;;;14.30;99.90;;;;;;8384993;28;20206;-70
2022/11/01 09:55:37;;;;;;;10.70;6.27;;;14.50;99.90;;;;;;8398781;28;20234;-69
2022/11/01 09:59:56;;;;;;;10.03;6.27;;;14.80;1.00;;;;;;8395882;28;20257;-70
2022/11/01 10:04:43;;;;;;;7.23;5.63;;;15.10;1.00;;;;;;8416731;28;20200;-70
2022/11/01 10:09:00;;;;;;;8.67;5.37;;;15.30;99.90;;;;;;8380675;28;20193;-70
2022/11/01 10:13:35;;;;;;;7.57;5.13;;;15.70;99.90;;;;;;8415534;28;20224;-72
2022/11/01 10:17:51;;;;;;;7.80;4.87;;;16.00;1.00;;;;;;8395625;28;20285;-70
2022/11/01 10:22:00;;;;;;;7.70;5.07;;;16.00;99.90;;;;;;8412955;28;20201;-70
2022/11/01 10:26:03;;;;;;;8.67;5.03;;;16.10;1.00;;;;;;8398431;28;20180;-71
2022/11/01 10:30:14;;;;;;;8.10;4.63;;;16.30;99.90;;;;;;8413396;28;20188;-69
2022/11/01 10:34:41;;;;;;;6.70;4.60;;;16.40;99.90;;;;;;8416249;28;20363;-70
2022/11/01 10:39:13;;;;;;;7.20;4.63;;;16.60;99.90;;;;;;8396895;28;20267;-70
2022/11/01 10:43:18;;;;;;;8.20;4.63;;;16.60;99.90;;;;;;8398264;28;20181;-70
2022/11/01 10:47:23;;;;;;;8.30;4.77;;;16.70;99.90;;;;;;8416091;28;20188;-70
2022/11/01 10:51:27;;;;;;;6.63;4.10;;;16.80;99.90;;;;;;8397739;28;20242;-70
2022/11/01 10:55:40;;;;;;;7.43;4.90;;;16.90;99.90;;;;;;8395089;28;20322;-70
2022/11/01 10:59:45;;;;;;;8.93;4.17;;;17.00;99.90;;;;;;8397254;28;20254;-72
2022/11/01 11:03:48;;;;;;;9.23;4.50;;;17.10;99.90;;;;;;8398444;28;20208;-71
2022/11/01 11:07:50;;;;;;;8.53;4.73;;;17.10;99.90;;;;;;8397471;28;20579;-70
2022/11/01 11:11:55;;;;;;;11.40;4.40;;;17.10;99.90;;;;;;8397551;28;20189;-70
2022/11/01 11:16:04;;;;;;;8.37;4.80;;;17.20;99.90;;;;;;8415771;28;20195;-71
2022/11/01 11:20:09;;;;;;;8.87;4.60;;;17.30;99.90;;;;;;8415572;28;20203;-71
2022/11/01 11:24:23;;;;;;;7.67;4.60;;;17.50;87.30;;;;;;8395543;28;20290;-70
2022/11/01 11:28:29;;;;;;;7.80;4.83;;;17.60;99.90;;;;;;8397583;28;20453;-70
2022/11/01 11:32:33;;;;;;;5.13;4.00;;;17.60;87.00;;;;;;8414545;28;20216;-71
2022/11/01 11:36:36;;;;;;;8.47;4.23;;;17.50;99.90;;;;;;8397452;28;20427;-70
2022/11/01 11:40:40;;;;;;;6.03;4.27;;;17.80;99.90;;;;;;8416491;28;20183;-70
2022/11/01 11:44:51;;;;;;;11.43;4.80;;;17.90;77.20;;;;;;8397237;28;20193;-71
2022/11/01 11:49:03;;;;;;;7.37;4.30;;;18.00;27.00;;;;;;8413971;28;20195;-69
2022/11/01 11:53:16;;;;;;;7.83;4.30;;;17.90;15.80;;;;;;8415326;28;20311;-70
2022/11/01 11:57:23;;;;;;;7.83;4.53;;;17.90;18.20;;;;;;8414641;28;20282;-70
2022/11/01 12:01:25;;;;;;;8.43;4.80;;;17.80;14.00;;;;;;8413328;28;20181;-70
2022/11/01 12:05:27;;;;;;;7.27;4.80;;;17.60;99.90;;;;;;8415427;28;20223;-69
2022/11/01 12:09:45;;;;;;;10.40;4.83;;;17.40;99.90;;;;;;8414818;28;20191;-70
2022/11/01 12:14:00;;;;;;;5.23;4.40;;;17.40;99.90;;;;;;8413455;28;20200;-71
2022/11/01 12:18:18;;;;;;;6.93;5.03;;;17.50;99.90;;;;;;8400625;28;20483;-70
2022/11/01 12:22:19;;;;;;;11.17;4.90;;;17.40;99.90;;;;;;8415330;28;20184;-70
2022/11/01 12:26:24;;;;;;;9.13;5.30;;;17.20;99.90;;;;;;8401380;28;20239;-69
2022/11/01 12:30:27;;;;;;;7.20;4.80;;;17.00;99.90;;;;;;8401766;28;20188;-68
2022/11/01 12:34:32;;;;;;;5.97;4.30;;;17.00;99.90;;;;;;8417918;28;20208;-69
2022/11/01 12:38:46;;;;;;;6.13;5.07;;;16.90;99.90;;;;;;8417464;28;20483;-71
2022/11/01 12:43:00;;;;;;;7.33;5.03;;;17.00;99.90;;;;;;8406348;28;20258;-71
2022/11/01 12:47:31;;;;;;;7.47;4.83;;;17.10;99.90;;;;;;8418672;28;20265;-71
2022/11/01 12:51:40;;;;;;;5.40;4.33;;;17.20;99.90;;;;;;8407221;28;20185;-69
2022/11/01 12:55:42;;;;;;;7.57;4.70;;;17.40;99.90;;;;;;8419809;28;20216;-69
2022/11/01 12:59:45;;;;;;;8.07;5.20;;;17.40;99.90;;;;;;8401624;28;20211;-69
2022/11/01 13:04:19;;;;;;;7.40;4.77;;;17.40;99.90;;;;;;8419619;28;20507;-69
2022/11/01 13:08:27;;;;;;;6.47;4.37;;;17.40;99.90;;;;;;8418721;28;20177;-69
2022/11/01 13:12:41;;;;;;;7.10;5.37;;;17.40;99.90;;;;;;8400718;28;20302;-69
2022/11/01 13:16:46;;;;;;;7.17;4.47;;;17.30;99.90;;;;;;8404550;28;20416;-70
2022/11/01 13:21:09;;;;;;;8.43;4.87;;;17.30;99.90;;;;;;8418258;28;20192;-69
2022/11/01 13:25:30;;;;;;;9.20;5.33;;;17.40;99.90;;;;;;8417168;28;20184;-70
2022/11/01 13:29:41;;;;;;;5.90;4.97;;;17.40;99.90;;;;;;8400007;28;20229;-70
2022/11/01 13:33:51;;;;;;;8.50;4.57;;;17.50;99.90;;;;;;8397611;28;20212;-68
2022/11/01 13:38:03;;;;;;;10.00;5.07;;;17.50;99.90;;;;;;8414749;28;20242;-69
2022/11/01 13:42:12;;;;;;;7.47;4.23;;;17.40;99.90;;;;;;8398224;28;20184;-70
2022/11/01 13:47:18;;;;;;;9.10;4.60;;;17.40;99.90;;;;;;8397974;28;20180;-69
2022/11/01 13:51:49;;;;;;;5.93;4.17;;;17.40;99.90;;;;;;8273022;28;20200;-69
2022/11/01 13:56:20;;;;;;;10.87;5.23;;;17.30;99.90;;;;;;8336974;28;20224;-69
2022/11/01 14:00:41;;;;;;;6.73;4.70;;;17.20;99.90;;;;;;8413974;28;20426;-70
2022/11/01 14:05:08;;;;;;;7.80;4.90;;;17.10;99.90;;;;;;8402792;28;20208;-68
2022/11/01 14:09:29;;;;;;;7.90;4.77;;;17.00;99.90;;;;;;8397458;28;20192;-69
2022/11/01 14:13:39;;;;;;;6.90;4.93;;;16.90;99.90;;;;;;8413337;28;20227;-69
2022/11/01 14:17:54;;;;;;;6.67;5.10;;;16.90;99.90;;;;;;8398097;28;20210;-70
2022/11/01 14:21:56;;;;;;;7.07;4.60;;;16.70;1.00;;;;;;8401236;28;20186;-70
2022/11/01 14:26:19;;;;;;;8.43;4.97;;;16.70;1.00;;;;;;8415724;28;20184;-70
2022/11/01 14:30:23;;;;;;;5.93;4.40;;;16.60;1.00;;;;;;8398084;28;20188;-69
2022/11/01 14:34:31;;;;;;;6.23;4.90;;;16.50;1.00;;;;;;8414645;28;20208;-69
2022/11/01 14:38:47;;;;;;;8.10;5.30;;;16.40;1.00;;;;;;8414934;28;20239;-68
2022/11/01 14:42:49;;;;;;;8.57;4.97;;;16.30;1.00;;;;;;8416240;28;20187;-70
2022/11/01 14:46:55;;;;;;;10.30;4.97;;;16.20;1.00;;;;;;8398048;28;20196;-70
2022/11/01 14:51:16;;;;;;;6.63;4.40;;;16.10;1.00;;;;;;8398957;28;20191;-70
2022/11/01 14:55:24;;;;;;;8.77;4.93;;;16.00;22.70;;;;;;8417240;28;20203;-70
2022/11/01 14:59:28;;;;;;;5.20;4.70;;;15.90;94.20;;;;;;8397016;28;20231;-69
2022/11/01 15:03:29;;;;;;;6.97;5.40;;;15.80;99.90;;;;;;8416201;28;20226;-69
2022/11/01 15:07:36;;;;;;;7.30;5.20;;;15.70;99.90;;;;;;8396769;28;20188;-69
2022/11/01 15:11:37;;;;;;;10.07;6.03;;;15.60;99.90;;;;;;8393996;28;20270;-70
2022/11/01 15:15:38;;;;;;;8.23;5.83;;;15.50;99.90;;;;;;8395403;28;20230;-69
2022/11/01 15:19:39;;;;;;;7.97;6.70;;;15.40;99.90;;;;;;8412074;28;20214;-69
2022/11/01 15:23:45;;;;;;;10.50;7.00;;;15.20;99.90;;;;;;8413148;28;20192;-69
2022/11/01 15:27:47;;;;;;;9.50;7.67;;;15.10;99.90;;;;;;8412393;28;20227;-69
2022/11/01 15:31:59;;;;;;;9.20;7.07;;;15.00;1.00;;;;;;8393900;28;20180;-70
2022/11/01 15:36:05;;;;;;;8.47;6.73;;;14.90;1.00;;;;;;8412781;28;20234;-69
2022/11/01 15:40:24;;;;;;;9.57;6.60;;;14.80;1.00;;;;;;8394871;28;20188;-69
2022/11/01 15:44:27;;;;;;;8.73;7.37;;;14.70;1.00;;;;;;8388089;28;20231;-69
2022/11/01 15:48:32;;;;;;;10.43;7.23;;;14.60;76.60;;;;;;8413077;28;20200;-70
2022/11/01 15:52:34;;;;;;;12.83;8.20;;;14.50;80.60;;;;;;8395706;28;20288;-69
2022/11/01 15:56:42;;;;;;;10.70;7.57;;;14.50;25.30;;;;;;8399517;28;20180;-70
2022/11/01 16:00:54;;;;;;;11.97;8.23;;;14.50;81.90;;;;;;8416872;28;20232;-69
2022/11/01 16:04:56;;;;;;;10.60;8.27;;;14.40;99.90;;;;;;8394298;28;20207;-70
2022/11/01 16:09:04;;;;;;;12.73;8.23;;;14.30;99.90;;;;;;8420136;28;20186;-70
2022/11/01 16:13:05;;;;;;;13.20;9.10;;;14.30;99.90;;;;;;8400477;28;20204;-70
2022/11/01 16:17:30;;;;;;;10.97;8.43;;;14.20;99.90;;;;;;8403521;28;20185;-70
2022/11/01 16:21:32;;;;;;;12.60;8.33;;;14.10;99.90;;;;;;8420991;28;20218;-70
2022/11/01 16:25:38;;;;;;;11.07;7.87;;;14.10;99.90;;;;;;8421655;28;20180;-70
2022/11/01 16:29:49;;;;;;;11.33;8.20;;;14.00;99.90;;;;;;8400283;28;20193;-70
2022/11/01 16:33:52;;;;;;;13.03;9.60;;;13.90;99.90;;;;;;8417107;28;20212;-70
2022/11/01 16:37:53;;;;;;;13.03;8.80;;;13.90;1.00;;;;;;8400327;28;20185;-69
2022/11/01 16:41:55;;;;;;;11.30;8.63;;;13.80;1.00;;;;;;8402604;28;20192;-69
2022/11/01 16:45:57;;;;;;;12.00;8.80;;;13.80;1.00;;;;;;8400384;28;20272;-69
2022/11/01 16:49:58;;;;;;;13.17;8.60;;;13.70;1.00;;;;;;8420269;28;20184;-68
2022/11/01 16:54:00;;;;;;;13.67;9.03;;;13.70;4.90;;;;;;8420979;28;20267;-69
2022/11/01 16:58:01;;;;;;;15.90;9.40;;;13.70;81.40;;;;;;8400968;28;20200;-68
2022/11/01 17:02:16;;;;;;;14.93;9.87;;;13.60;99.90;;;;;;8401684;28;20227;-69
2022/11/01 17:06:18;;;;;;;13.10;9.90;;;13.60;99.90;;;;;;8401084;28;20216;-69
2022/11/01 17:10:24;;;;;;;17.23;10.13;;;13.60;99.90;;;;;;8393195;28;20266;-70
2022/11/01 17:14:25;;;;;;;13.67;9.73;;;13.60;99.90;;;;;;8415179;28;20247;-69
2022/11/01 17:18:38;;;;;;;13.10;9.20;;;13.50;99.90;;;;;;8418994;28;20184;-70
2022/11/01 17:22:40;;;;;;;13.90;9.20;;;13.50;99.90;;;;;;8416147;28;20263;-68
2022/11/01 17:26:41;;;;;;;16.43;10.10;;;13.50;99.90;;;;;;8400446;28;20279;-69
2022/11/01 17:30:43;;;;;;;11.90;8.73;;;13.40;99.90;;;;;;8400402;28;20188;-69
2022/11/01 17:34:44;;;;;;;14.53;10.33;;;13.40;99.90;;;;;;8418260;28;20285;-68
2022/11/01 17:38:47;;;;;;;16.43;10.17;;;13.40;99.90;;;;;;8398037;28;20184;-69
2022/11/01 17:42:48;;;;;;;14.57;11.17;;;13.30;99.90;;;;;;8413336;28;20198;-69
2022/11/01 17:46:49;;;;;;;16.63;11.23;;;13.40;99.90;;;;;;8413042;28;20192;-70
2022/11/01 17:50:50;;;;;;;16.73;11.93;;;13.30;99.90;;;;;;8399029;28;20197;-69
2022/11/01 17:54:51;;;;;;;15.73;11.50;;;13.30;99.90;;;;;;8395284;28;20214;-69
2022/11/01 17:58:55;;;;;;;12.53;10.53;;;13.30;99.90;;;;;;8397833;28;20498;-70
2022/11/01 18:02:57;;;;;;;12.57;10.37;;;13.30;99.90;;;;;;8411357;28;20224;-70
2022/11/01 18:06:58;;;;;;;16.27;11.20;;;13.20;99.90;;;;;;8395410;28;20185;-69
2022/11/01 18:11:37;;;;;;;15.40;10.97;;;13.20;1.00;;;;;;8415449;28;20192;-69
2022/11/01 18:16:05;;;;;;;15.20;11.27;;;13.20;99.90;;;;;;8397131;28;20220;-69
2022/11/01 18:20:45;;;;;;;14.50;10.87;;;13.20;99.90;;;;;;8404407;28;20192;-68
2022/11/01 18:24:56;;;;;;;16.93;11.33;;;13.20;99.90;;;;;;8411540;28;20212;-68
2022/11/01 18:29:08;;;;;;;15.53;10.83;;;13.20;99.90;;;;;;8415183;28;20192;-68
2022/11/01 18:33:12;;;;;;;14.00;11.13;;;13.20;99.90;;;;;;8413413;28;20204;-69
2022/11/01 18:37:39;;;;;;;15.77;11.10;;;13.20;99.90;;;;;;8401305;28;20199;-68
2022/11/01 18:41:42;;;;;;;15.43;11.57;;;13.20;99.90;;;;;;8411344;28;20233;-69
2022/11/01 18:45:45;;;;;;;15.17;10.63;;;13.10;99.90;;;;;;8414746;28;20188;-69
2022/11/01 18:49:48;;;;;;;14.30;10.57;;;13.00;99.90;;;;;;8395382;28;20196;-69
2022/11/01 18:53:55;;;;;;;15.57;11.80;;;12.90;1.00;;;;;;8395162;28;20254;-69
2022/11/01 18:57:56;;;;;;;16.80;11.73;;;12.90;1.00;;;;;;8411457;28;20322;-69
2022/11/01 19:02:16;;;;;;;19.03;12.27;;;12.80;78.30;;;;;;8397091;28;20196;-68
2022/11/01 19:06:21;;;;;;;15.77;11.67;;;12.60;99.90;;;;;;8397280;28;20229;-69
2022/11/01 19:10:23;;;;;;;15.87;12.43;;;12.60;1.00;;;;;;8393839;28;20184;-70
2022/11/01 19:14:25;;;;;;;21.07;12.80;;;12.50;99.90;;;;;;8394476;28;20212;-70
2022/11/01 19:18:26;;;;;;;13.93;11.17;;;12.50;1.00;;;;;;8397018;28;20291;-69
2022/11/01 19:22:35;;;;;;;17.90;12.60;;;12.40;1.00;;;;;;8396720;28;20181;-70
2022/11/01 19:26:40;;;;;;;16.60;11.97;;;12.30;99.90;;;;;;8396333;28;20184;-68
2022/11/01 19:30:47;;;;;;;18.90;12.40;;;12.30;99.90;;;;;;8411454;28;20189;-69
2022/11/01 19:34:50;;;;;;;17.70;13.33;;;12.20;1.00;;;;;;8414908;28;20234;-68
2022/11/01 19:38:52;;;;;;;19.13;12.83;;;12.10;1.00;;;;;;8412122;28;20196;-68
2022/11/01 19:42:54;;;;;;;16.60;11.97;;;12.10;99.90;;;;;;8413767;28;20195;-68
2022/11/01 19:47:24;;;;;;;17.17;12.57;;;12.10;21.50;;;;;;8395745;28;20192;-68
2022/11/01 19:51:26;;;;;;;17.43;12.63;;;12.00;99.90;;;;;;8413704;28;20208;-68
2022/11/01 19:55:36;;;;;;;17.57;12.57;;;11.90;88.10;;;;;;8396132;28;20264;-69
2022/11/01 19:59:37;;;;;;;17.73;13.10;;;11.70;1.00;;;;;;8394748;28;20208;-69
2022/11/01 20:03:42;;;;;;;18.90;14.00;;;11.70;99.90;;;;;;8412946;28;20188;-69
2022/11/01 20:07:42;;;;;;;19.63;13.20;;;11.60;99.90;;;;;;8398370;28;20200;-68
2022/11/01 20:11:43;;;;;;;16.77;12.43;;;11.50;99.90;;;;;;8397128;28;20188;-69
2022/11/01 20:15:44;;;;;;;18.77;13.33;;;11.40;99.90;;;;;;8414550;28;20318;-69
2022/11/01 20:19:45;;;;;;;19.73;13.63;;;11.30;1.00;;;;;;8396021;28;20187;-69
2022/11/01 20:23:46;;;;;;;22.03;12.77;;;11.30;1.00;;;;;;8393710;28;20181;-69
2022/11/01 20:27:47;;;;;;;18.27;13.10;;;11.20;95.50;;;;;;8391043;28;20342;-69
2022/11/01 20:31:48;;;;;;;17.43;12.77;;;11.10;99.90;;;;;;8390622;28;20224;-70
2022/11/01 20:35:50;;;;;;;22.10;14.07;;;11.00;99.90;;;;;;8393368;28;20208;-69
2022/11/01 20:39:50;;;;;;;18.90;13.00;;;11.00;99.90;;;;;;8415499;28;20401;-71
2022/11/01 20:43:52;;;;;;;19.23;13.83;;;11.00;99.90;;;;;;8416652;28;20252;-70
2022/11/01 20:47:54;;;;;;;22.07;14.47;;;10.90;99.90;;;;;;8407435;28;20192;-69
2022/11/01 20:51:55;;;;;;;22.20;14.27;;;10.90;99.90;;;;;;8400671;28;20271;-69
2022/11/01 20:55:55;;;;;;;18.80;13.70;;;10.90;99.90;;;;;;8416017;28;20205;-69
2022/11/01 20:59:56;;;;;;;20.30;14.60;;;10.80;99.90;;;;;;8399274;28;20204;-70
2022/11/01 21:03:58;;;;;;;20.20;13.40;;;10.80;99.90;;;;;;8406272;28;20192;-69
2022/11/01 21:08:21;;;;;;;19.83;13.33;;;10.80;99.90;;;;;;8398489;28;20243;-69
2022/11/01 21:12:52;;;;;;;22.50;14.40;;;10.80;99.90;;;;;;8396172;28;20197;-69
2022/11/01 21:16:55;;;;;;;20.00;14.10;;;10.70;99.90;;;;;;8397520;28;20192;-68